createdAt,value
2022-08-25T00:02:00.139Z,65.66
2022-08-25T00:04:29.585Z,66.05
2022-08-25T00:07:02.227Z,66.00
2022-08-25T00:09:31.455Z,65.86
2022-08-25T00:11:59.209Z,65.93
2022-08-25T00:14:32.721Z,65.86
2022-08-25T00:17:00.453Z,65.60
2022-08-25T00:19:32.635Z,65.83
2022-08-25T00:22:00.849Z,65.71
2022-08-25T00:24:28.077Z,65.78
2022-08-25T00:26:57.099Z,65.56
2022-08-25T00:29:26.339Z,65.63
2022-08-25T00:31:54.931Z,65.30
2022-08-25T00:34:30.371Z,65.62
2022-08-25T00:36:57.405Z,65.16
2022-08-25T00:39:25.525Z,65.37
2022-08-25T00:41:57.038Z,65.09
2022-08-25T00:44:27.327Z,65.29
2022-08-25T00:46:57.885Z,65.38
2022-08-25T00:49:40.452Z,65.42
2022-08-25T00:52:29.991Z,65.37
2022-08-25T00:55:07.886Z,65.41
2022-08-25T00:57:42.222Z,65.69
2022-08-25T01:00:23.420Z,65.78
2022-08-25T01:02:50.665Z,66.04
2022-08-25T01:05:19.307Z,66.14
2022-08-25T01:07:46.891Z,66.63
2022-08-25T01:10:14.143Z,66.99
2022-08-25T01:12:41.333Z,66.96
2022-08-25T01:15:11.829Z,67.16
2022-08-25T01:17:49.240Z,67.32
2022-08-25T01:20:19.823Z,67.42
2022-08-25T01:22:50.876Z,67.34
2022-08-25T01:25:57.318Z,67.17
2022-08-25T01:28:24.277Z,67.21
2022-08-25T01:30:52.469Z,67.50
2022-08-25T01:33:19.623Z,67.34
2022-08-25T01:35:47.846Z,67.16
2022-08-25T01:38:15.388Z,67.23
2022-08-25T01:40:43.091Z,67.00
2022-08-25T01:43:16.931Z,66.86
2022-08-25T01:45:47.412Z,66.79
2022-08-25T01:48:16.592Z,66.34
2022-08-25T01:50:44.183Z,66.62
2022-08-25T01:53:24.495Z,66.83
2022-08-25T01:56:02.717Z,67.10
2022-08-25T01:58:37.111Z,67.34
2022-08-25T02:01:09.318Z,67.78
2022-08-25T02:03:42.351Z,67.69
2022-08-25T02:06:12.779Z,67.80
2022-08-25T02:08:40.011Z,67.98
2022-08-25T02:11:11.962Z,68.24
2022-08-25T02:13:40.831Z,68.01
2022-08-25T02:16:09.736Z,68.02
2022-08-25T02:18:36.865Z,68.09
2022-08-25T02:21:04.044Z,67.96
2022-08-25T02:23:30.959Z,68.18
2022-08-25T02:25:58.030Z,68.15
2022-08-25T02:28:26.060Z,68.24
2022-08-25T02:30:53.169Z,68.48
2022-08-25T02:33:25.964Z,68.42
2022-08-25T02:35:52.855Z,68.44
2022-08-25T02:38:19.775Z,68.59
2022-08-25T02:40:46.729Z,68.76
2022-08-25T02:43:13.641Z,68.24
2022-08-25T02:45:41.604Z,68.21
2022-08-25T02:48:08.570Z,68.02
2022-08-25T02:50:35.507Z,68.09
2022-08-25T02:53:02.562Z,68.01
2022-08-25T02:55:29.527Z,67.62
2022-08-25T02:58:00.563Z,67.62
2022-08-25T03:00:27.618Z,67.60
2022-08-25T03:02:54.514Z,67.63
2022-08-25T03:05:21.498Z,67.36
2022-08-25T03:07:48.483Z,67.37
2022-08-25T03:10:18.698Z,67.05
2022-08-25T03:12:46.429Z,67.21
2022-08-25T03:15:16.795Z,67.16
2022-08-25T03:17:46.139Z,67.08
2022-08-25T03:20:13.586Z,67.07
2022-08-25T03:22:40.532Z,67.18
2022-08-25T03:25:26.815Z,67.23
2022-08-25T03:27:53.719Z,67.45
2022-08-25T03:30:21.338Z,68.24
2022-08-25T03:32:48.337Z,68.26
2022-08-25T03:35:15.479Z,68.37
2022-08-25T03:37:42.480Z,68.63
2022-08-25T03:40:15.213Z,68.95
2022-08-25T03:42:47.121Z,69.72
2022-08-25T03:45:16.780Z,70.36
2022-08-25T03:47:47.815Z,69.87
2022-08-25T03:50:16.966Z,70.14
2022-08-25T03:52:44.192Z,70.60
2022-08-25T03:55:13.713Z,70.40
2022-08-25T03:57:40.664Z,70.51
2022-08-25T04:00:10.451Z,70.88
2022-08-25T04:02:41.160Z,70.69
2022-08-25T04:05:09.357Z,70.70
2022-08-25T04:07:36.508Z,71.00
2022-08-25T04:10:06.203Z,70.51
2022-08-25T04:12:33.156Z,70.70
2022-08-25T04:15:00.071Z,70.63
2022-08-25T04:17:27.197Z,70.92
2022-08-25T04:19:54.260Z,71.29
2022-08-25T04:22:21.160Z,70.78
2022-08-25T04:24:48.069Z,70.91
2022-08-25T04:27:15.425Z,71.23
2022-08-25T04:29:42.785Z,70.83
2022-08-25T04:32:09.823Z,70.98
2022-08-25T04:34:36.824Z,71.39
2022-08-25T04:37:06.505Z,71.02
2022-08-25T04:39:33.641Z,71.05
2022-08-25T04:42:01.347Z,71.35
2022-08-25T04:44:30.089Z,70.60
2022-08-25T04:46:57.264Z,71.08
2022-08-25T04:49:24.186Z,70.72
2022-08-25T04:51:51.080Z,71.08
2022-08-25T04:54:21.663Z,70.56
2022-08-25T04:56:50.279Z,70.56
2022-08-25T04:59:21.650Z,70.29
2022-08-25T05:01:50.114Z,70.84
2022-08-25T05:04:28.212Z,70.97
2022-08-25T05:06:57.032Z,70.99
2022-08-25T05:09:25.252Z,71.55
2022-08-25T05:11:53.017Z,71.46
2022-08-25T05:14:23.183Z,70.97
2022-08-25T05:16:55.608Z,70.80
2022-08-25T05:19:24.109Z,70.41
2022-08-25T05:21:52.103Z,70.28
2022-08-25T05:24:20.280Z,70.52
2022-08-25T05:26:47.312Z,70.52
2022-08-25T05:29:14.450Z,70.43
2022-08-25T05:31:44.851Z,70.08
2022-08-25T05:34:14.321Z,70.64
2022-08-25T05:36:43.433Z,70.40
2022-08-25T05:39:11.278Z,70.83
2022-08-25T05:41:38.759Z,70.98
2022-08-25T05:44:06.253Z,71.15
2022-08-25T05:46:33.158Z,70.72
2022-08-25T05:49:00.402Z,71.00
2022-08-25T05:51:27.768Z,70.82
2022-08-25T05:53:54.753Z,70.30
2022-08-25T05:56:21.848Z,70.08
2022-08-25T05:58:50.229Z,69.99
2022-08-25T06:01:45.352Z,70.68
2022-08-25T06:04:17.621Z,70.83
2022-08-25T06:06:44.567Z,70.64
2022-08-25T06:09:11.829Z,70.62
2022-08-25T06:11:40.754Z,70.37
2022-08-25T06:14:09.960Z,70.35
2022-08-25T06:16:38.966Z,70.08
2022-08-25T06:19:07.798Z,70.90
2022-08-25T06:21:35.256Z,70.50
2022-08-25T06:24:02.432Z,70.60
2022-08-25T06:26:29.402Z,70.53
2022-08-25T06:28:56.308Z,70.86
2022-08-25T06:31:23.896Z,71.07
2022-08-25T06:33:51.519Z,71.32
2022-08-25T06:36:19.260Z,71.08
2022-08-25T06:38:47.578Z,70.71
2022-08-25T06:41:16.417Z,70.49
2022-08-25T06:43:47.957Z,70.23
2022-08-25T06:46:23.214Z,69.50
2022-08-25T06:49:03.052Z,70.19
2022-08-25T06:51:29.992Z,69.87
2022-08-25T06:53:56.887Z,70.20
2022-08-25T06:56:24.066Z,69.81
2022-08-25T06:58:51.014Z,69.53
2022-08-25T07:01:26.889Z,69.30
2022-08-25T07:03:59.899Z,69.11
2022-08-25T07:06:31.034Z,69.04
2022-08-25T07:08:58.573Z,68.50
2022-08-25T07:11:26.451Z,68.75
2022-08-25T07:13:53.438Z,67.96
2022-08-25T07:16:21.149Z,68.10
2022-08-25T07:18:48.774Z,68.00
2022-08-25T07:21:16.912Z,67.61
2022-08-25T07:23:44.437Z,67.37
2022-08-25T07:26:37.189Z,67.61
2022-08-25T07:29:14.754Z,66.76
2022-08-25T07:31:42.307Z,66.56
2022-08-25T07:34:28.501Z,66.24
2022-08-25T07:36:56.903Z,66.21
2022-08-25T07:39:25.423Z,66.15
2022-08-25T07:41:53.790Z,65.69
2022-08-25T07:44:22.615Z,65.40
2022-08-25T07:46:51.466Z,64.97
2022-08-25T07:52:06.926Z,65.02
2022-08-25T07:54:37.776Z,64.75
2022-08-25T07:57:07.656Z,65.44
2022-08-25T07:59:39.358Z,64.93
2022-08-25T08:02:17.978Z,64.63
2022-08-25T08:04:50.407Z,63.42
2022-08-25T08:07:41.969Z,63.77
2022-08-25T08:13:00.704Z,61.97
2022-08-25T08:15:29.923Z,62.26
2022-08-25T08:17:58.698Z,61.38
2022-08-25T08:20:27.359Z,61.42
2022-08-25T08:22:55.488Z,61.27
2022-08-25T08:25:26.669Z,60.57
2022-08-25T08:27:55.290Z,60.48
2022-08-25T08:30:26.072Z,60.50
2022-08-25T08:33:11.481Z,60.22
2022-08-25T08:35:40.564Z,60.28
2022-08-25T08:38:14.721Z,60.19
2022-08-25T08:41:25.057Z,59.06
2022-08-25T08:44:08.160Z,59.09
2022-08-25T08:47:04.005Z,58.14
2022-08-25T08:50:06.454Z,57.77
2022-08-25T08:52:44.950Z,57.21
2022-08-25T08:55:40.888Z,56.70
2022-08-25T08:58:17.288Z,56.34
2022-08-25T09:00:52.595Z,55.47
2022-08-25T09:03:42.709Z,55.98
2022-08-25T09:06:26.067Z,55.63
2022-08-25T09:08:55.572Z,55.27
2022-08-25T09:11:53.309Z,55.18
2022-08-25T09:14:44.315Z,54.97
2022-08-25T09:17:52.686Z,54.39
2022-08-25T09:20:55.107Z,55.66
2022-08-25T09:23:42.998Z,55.26
2022-08-25T09:26:53.160Z,54.39
2022-08-25T09:29:25.421Z,54.35
2022-08-25T09:31:58.177Z,55.06
2022-08-25T09:34:32.877Z,54.91
2022-08-25T09:37:00.827Z,54.63
2022-08-25T09:39:27.983Z,54.34
2022-08-25T09:42:00.392Z,54.27
2022-08-25T09:44:43.599Z,54.54
2022-08-25T09:47:25.620Z,53.51
2022-08-25T09:50:01.622Z,53.69
2022-08-25T09:52:41.250Z,54.28
2022-08-25T09:55:08.446Z,53.88
2022-08-25T09:57:49.216Z,53.49
2022-08-25T10:00:34.523Z,52.96
2022-08-25T10:03:06.012Z,52.88
2022-08-25T10:05:57.355Z,53.10
2022-08-25T10:08:39.499Z,52.59
2022-08-25T10:11:15.217Z,52.10
2022-08-25T10:13:47.235Z,52.03
2022-08-25T10:16:27.041Z,52.10
2022-08-25T10:19:11.267Z,51.89
2022-08-25T10:21:42.148Z,51.13
2022-08-25T10:24:12.323Z,51.49
2022-08-25T10:27:30.291Z,51.55
2022-08-25T10:30:24.058Z,52.10
2022-08-25T10:33:10.107Z,51.56
2022-08-25T10:36:12.758Z,51.24
2022-08-25T10:38:55.394Z,50.69
2022-08-25T10:41:42.210Z,51.06
2022-08-25T10:44:41.718Z,50.20
2022-08-25T10:47:33.296Z,49.99
2022-08-25T10:50:29.320Z,49.63
2022-08-25T10:53:23.685Z,49.36
2022-08-25T10:56:07.310Z,49.59
2022-08-25T10:59:09.220Z,48.69
2022-08-25T11:02:20.054Z,48.89
2022-08-25T11:05:00.217Z,48.24
2022-08-25T11:07:38.265Z,48.60
2022-08-25T11:10:14.429Z,48.54
2022-08-25T11:12:47.089Z,48.04
2022-08-25T11:15:24.171Z,47.67
2022-08-25T11:18:03.390Z,47.92
2022-08-25T11:20:41.498Z,47.81
2022-08-25T11:23:32.291Z,47.23
2022-08-25T11:26:11.008Z,46.79
2022-08-25T11:29:05.259Z,46.75
2022-08-25T11:31:45.840Z,46.95
2022-08-25T11:34:15.591Z,47.19
2022-08-25T11:37:07.851Z,47.03
2022-08-25T11:40:02.907Z,46.60
2022-08-25T11:43:08.784Z,46.44
2022-08-25T11:45:54.563Z,45.51
2022-08-25T11:49:17.989Z,45.12
2022-08-25T11:51:50.831Z,45.47
2022-08-25T11:54:37.205Z,45.17
2022-08-25T11:57:10.536Z,45.28
2022-08-25T11:59:53.048Z,46.01
2022-08-25T12:02:51.157Z,44.78
2022-08-25T12:05:24.162Z,44.83
2022-08-25T12:08:12.485Z,43.93
2022-08-25T12:11:10.879Z,44.64
2022-08-25T12:13:49.047Z,44.08
2022-08-25T12:16:35.379Z,44.26
2022-08-25T12:19:28.938Z,45.73
2022-08-25T12:22:03.235Z,45.34
2022-08-25T12:24:47.703Z,44.22
2022-08-25T12:27:52.372Z,45.06
2022-08-25T12:30:50.535Z,44.22
2022-08-25T12:34:05.981Z,44.24
2022-08-25T12:36:35.140Z,44.55
2022-08-25T12:39:24.481Z,44.49
2022-08-25T12:42:03.003Z,44.07
2022-08-25T12:44:44.402Z,44.76
2022-08-25T12:47:19.514Z,44.38
2022-08-25T12:49:50.893Z,43.67
2022-08-25T12:52:21.870Z,44.24
2022-08-25T12:54:59.601Z,44.34
2022-08-25T12:57:49.870Z,45.39
2022-08-25T13:00:21.296Z,44.75
2022-08-25T13:03:16.407Z,45.36
2022-08-25T13:06:25.781Z,45.64
2022-08-25T13:09:16.352Z,44.89
2022-08-25T13:12:27.276Z,45.98
2022-08-25T13:14:58.022Z,45.95
2022-08-25T13:17:34.395Z,45.99
2022-08-25T13:20:23.392Z,46.18
2022-08-25T13:22:57.447Z,45.82
2022-08-25T13:25:32.122Z,46.21
2022-08-25T13:28:04.119Z,46.22
2022-08-25T13:30:36.673Z,46.05
2022-08-25T13:33:20.261Z,45.20
2022-08-25T13:36:12.332Z,45.52
2022-08-25T13:38:39.350Z,45.75
2022-08-25T13:41:09.351Z,45.62
2022-08-25T13:43:38.726Z,45.60
2022-08-25T13:46:06.496Z,46.32
2022-08-25T13:48:37.982Z,46.10
2022-08-25T13:51:18.777Z,46.92
2022-08-25T13:54:00.830Z,46.99
2022-08-25T13:56:41.155Z,47.21
2022-08-25T13:59:20.982Z,47.20
2022-08-25T14:01:50.236Z,46.34
2022-08-25T14:04:33.463Z,46.76
2022-08-25T14:07:34.764Z,46.74
2022-08-25T14:10:08.719Z,46.79
2022-08-25T14:12:45.382Z,47.19
2022-08-25T14:15:18.320Z,47.64
2022-08-25T14:18:19.674Z,47.76
2022-08-25T14:20:50.996Z,48.24
2022-08-25T14:23:27.660Z,47.76
2022-08-25T14:25:57.692Z,47.29
2022-08-25T14:28:31.954Z,47.83
2022-08-25T14:31:16.485Z,48.03
2022-08-25T14:33:57.185Z,47.31
2022-08-25T14:36:24.778Z,46.52
2022-08-25T14:38:54.635Z,47.38
2022-08-25T14:41:23.945Z,47.83
2022-08-25T14:43:51.104Z,47.75
2022-08-25T14:46:28.237Z,48.35
2022-08-25T14:49:00.620Z,48.43
2022-08-25T14:51:29.868Z,48.16
2022-08-25T14:54:03.637Z,49.22
2022-08-25T14:56:32.112Z,49.02
2022-08-25T14:58:59.808Z,49.47
2022-08-25T15:01:28.903Z,49.11
2022-08-25T15:04:08.786Z,49.46
2022-08-25T15:06:36.983Z,49.47
2022-08-25T15:09:10.984Z,49.87
2022-08-25T15:11:54.642Z,50.35
2022-08-25T15:14:28.909Z,50.54
2022-08-25T15:17:00.564Z,49.39
2022-08-25T15:19:28.411Z,49.26
2022-08-25T15:21:58.040Z,49.91
2022-08-25T15:24:28.223Z,49.88
2022-08-25T15:27:07.229Z,50.33
2022-08-25T15:29:37.344Z,49.95
2022-08-25T15:32:07.214Z,50.31
2022-08-25T15:34:35.457Z,50.27
2022-08-25T15:37:10.599Z,50.46
2022-08-25T15:39:39.410Z,50.55
2022-08-25T15:42:06.547Z,50.66
2022-08-25T15:44:33.732Z,50.35
2022-08-25T15:47:02.734Z,50.70
2022-08-25T15:49:31.306Z,50.79
2022-08-25T15:51:59.236Z,51.59
2022-08-25T15:54:27.497Z,51.46
2022-08-25T15:56:56.945Z,51.91
2022-08-25T15:59:25.461Z,52.19
2022-08-25T16:01:53.627Z,51.98
2022-08-25T16:04:23.404Z,52.10
2022-08-25T16:06:51.949Z,51.89
2022-08-25T16:09:22.976Z,52.02
2022-08-25T16:11:56.786Z,52.02
2022-08-25T16:14:25.755Z,52.16
2022-08-25T16:16:58.367Z,52.48
2022-08-25T16:19:29.268Z,52.39
2022-08-25T16:21:56.656Z,52.67
2022-08-25T16:24:23.640Z,52.75
2022-08-25T16:26:51.933Z,52.65
2022-08-25T16:29:19.976Z,52.77
2022-08-25T16:31:54.957Z,53.02
2022-08-25T16:34:24.578Z,52.78
2022-08-25T16:36:55.542Z,52.90
2022-08-25T16:39:24.000Z,53.31
2022-08-25T16:41:52.260Z,53.54
2022-08-25T16:44:22.519Z,53.62
2022-08-25T16:46:54.194Z,53.70
2022-08-25T16:49:22.038Z,53.86
2022-08-25T16:51:57.220Z,53.45
2022-08-25T16:54:44.964Z,54.03
2022-08-25T16:57:12.364Z,54.18
2022-08-25T16:59:39.416Z,54.04
2022-08-25T17:02:06.698Z,54.28
2022-08-25T17:04:33.734Z,54.31
2022-08-25T17:07:01.718Z,53.82
2022-08-25T17:09:30.065Z,53.42
2022-08-25T17:11:57.319Z,53.00
2022-08-25T17:14:24.844Z,52.83
2022-08-25T17:16:55.028Z,53.02
2022-08-25T17:19:24.831Z,53.20
2022-08-25T17:21:54.389Z,53.65
2022-08-25T17:24:22.498Z,53.62
2022-08-25T17:26:56.704Z,53.88
2022-08-25T17:29:23.648Z,54.29
2022-08-25T17:31:51.605Z,54.24
2022-08-25T17:34:22.953Z,54.80
2022-08-25T17:36:51.084Z,55.34
2022-08-25T17:39:19.691Z,55.29
2022-08-25T17:41:50.589Z,55.90
2022-08-25T17:44:18.095Z,55.83
2022-08-25T17:46:47.470Z,55.84
2022-08-25T17:49:16.247Z,55.82
2022-08-25T17:51:43.332Z,56.57
2022-08-25T17:54:12.237Z,57.02
2022-08-25T17:56:39.514Z,57.65
2022-08-25T17:59:07.480Z,57.92
2022-08-25T18:01:40.263Z,57.91
2022-08-25T18:04:08.143Z,58.09
2022-08-25T18:06:45.454Z,58.66
2022-08-25T18:09:12.768Z,59.22
2022-08-25T18:11:39.676Z,59.61
2022-08-25T18:14:06.596Z,60.42
2022-08-25T18:16:33.517Z,60.31
2022-08-25T18:19:01.758Z,60.87
2022-08-25T18:21:30.531Z,60.77
2022-08-25T18:23:58.765Z,61.27
2022-08-25T18:26:26.239Z,61.34
2022-08-25T18:28:53.333Z,62.29
2022-08-25T18:31:20.390Z,62.34
2022-08-25T18:33:47.548Z,62.25
2022-08-25T18:36:20.376Z,62.91
2022-08-25T18:39:07.341Z,62.57
2022-08-25T18:41:40.103Z,62.66
2022-08-25T18:44:08.139Z,62.37
2022-08-25T18:46:37.565Z,62.30
2022-08-25T18:49:04.927Z,63.26
2022-08-25T18:51:33.100Z,63.52
2022-08-25T18:54:01.089Z,63.91
2022-08-25T18:56:29.033Z,63.60
2022-08-25T18:58:57.147Z,64.29
2022-08-25T19:01:24.564Z,64.37
2022-08-25T19:03:51.797Z,64.39
2022-08-25T19:06:19.463Z,64.84
2022-08-25T19:08:48.228Z,64.85
2022-08-25T19:11:16.534Z,64.99
2022-08-25T19:13:44.778Z,64.00
2022-08-25T19:16:20.587Z,64.05
2022-08-25T19:18:49.031Z,64.31
2022-08-25T19:21:22.563Z,64.69
2022-08-25T19:23:50.892Z,65.07
2022-08-25T19:26:19.296Z,64.85
2022-08-25T19:28:50.426Z,65.16
2022-08-25T19:31:20.270Z,64.76
2022-08-25T19:33:50.533Z,65.23
2022-08-25T19:36:22.947Z,64.97
2022-08-25T19:38:52.342Z,64.79
2022-08-25T19:41:22.072Z,65.13
2022-08-25T19:43:56.739Z,64.98
2022-08-25T19:46:35.807Z,64.59
2022-08-25T19:49:12.899Z,64.71
2022-08-25T19:51:44.723Z,65.09
2022-08-25T19:54:20.402Z,64.39
2022-08-25T19:56:55.194Z,64.05
2022-08-25T19:59:40.725Z,64.00
2022-08-25T20:02:16.182Z,63.17
2022-08-25T20:04:50.245Z,63.67
2022-08-25T20:07:21.174Z,62.95
2022-08-25T20:09:48.610Z,62.70
2022-08-25T20:12:16.910Z,62.92
2022-08-25T20:14:44.768Z,62.85
2022-08-25T20:17:14.495Z,62.91
2022-08-25T20:19:54.061Z,63.10
2022-08-25T20:22:25.840Z,63.00
2022-08-25T20:24:55.813Z,62.95
2022-08-25T20:27:33.440Z,62.87
2022-08-25T20:30:02.795Z,63.42
2022-08-25T20:32:32.604Z,62.80
2022-08-25T20:35:00.913Z,63.44
2022-08-25T20:37:27.875Z,63.52
2022-08-25T20:39:55.002Z,63.16
2022-08-25T20:42:22.122Z,63.02
2022-08-25T20:44:49.078Z,63.70
2022-08-25T20:47:16.044Z,64.00
2022-08-25T20:49:47.600Z,64.79
2022-08-25T20:52:15.660Z,65.26
2022-08-25T20:54:47.039Z,65.55
2022-08-25T20:57:25.917Z,64.97
2022-08-25T20:59:54.713Z,64.60
2022-08-25T21:02:23.066Z,65.10
2022-08-25T21:04:50.630Z,64.84
2022-08-25T21:07:18.522Z,64.67
2022-08-25T21:09:45.716Z,64.20
2022-08-25T21:12:12.827Z,63.91
2022-08-25T21:14:41.709Z,64.24
2022-08-25T21:17:12.614Z,63.96
2022-08-25T21:19:40.261Z,64.28
2022-08-25T21:22:10.869Z,63.88
2022-08-25T21:24:38.569Z,63.69
2022-08-25T21:27:05.628Z,63.66
2022-08-25T21:29:33.526Z,63.69
2022-08-25T21:32:00.472Z,64.00
2022-08-25T21:34:29.267Z,63.58
2022-08-25T21:36:58.383Z,64.05
2022-08-25T21:39:28.105Z,63.61
2022-08-25T21:41:56.644Z,63.94
2022-08-25T21:44:23.688Z,63.50
2022-08-25T21:46:53.995Z,63.46
2022-08-25T21:49:23.344Z,63.73
2022-08-25T21:52:01.013Z,63.29
2022-08-25T21:54:29.941Z,63.73
2022-08-25T21:57:00.580Z,63.33
2022-08-25T21:59:32.542Z,63.17
2022-08-25T22:02:04.323Z,63.53
2022-08-25T22:04:33.092Z,63.48
2022-08-25T22:07:00.860Z,64.00
2022-08-25T22:09:29.700Z,63.33
2022-08-25T22:11:57.086Z,63.51
2022-08-25T22:14:26.501Z,63.53
2022-08-25T22:16:54.888Z,63.75
2022-08-25T22:19:22.758Z,63.34
2022-08-25T22:21:51.088Z,63.82
2022-08-25T22:24:19.297Z,63.70
2022-08-25T22:26:48.462Z,63.41
2022-08-25T22:29:24.764Z,63.37
2022-08-25T22:32:00.656Z,63.79
2022-08-25T22:34:34.277Z,63.55
2022-08-25T22:37:03.875Z,64.14
2022-08-25T22:39:32.492Z,64.15
2022-08-25T22:42:02.863Z,64.26
2022-08-25T22:44:30.060Z,63.94
2022-08-25T22:46:56.961Z,64.41
2022-08-25T22:49:23.866Z,64.97
2022-08-25T22:51:51.029Z,65.40
2022-08-25T22:54:18.262Z,65.11
2022-08-25T22:56:45.764Z,65.68
2022-08-25T22:59:14.020Z,65.26
2022-08-25T23:01:44.085Z,65.85
2022-08-25T23:04:12.266Z,66.41
2022-08-25T23:06:40.638Z,66.68
2022-08-25T23:09:10.719Z,66.81
2022-08-25T23:11:39.054Z,66.95
2022-08-25T23:14:10.198Z,67.04
2022-08-25T23:16:39.603Z,67.12
2022-08-25T23:19:10.184Z,66.98
2022-08-25T23:21:56.768Z,66.96
2022-08-25T23:24:26.924Z,67.06
2022-08-25T23:26:59.178Z,66.51
2022-08-25T23:29:27.518Z,66.86
2022-08-25T23:31:54.686Z,66.93
2022-08-25T23:34:22.185Z,66.94
2022-08-25T23:36:49.198Z,66.74
2022-08-25T23:39:16.135Z,66.81
2022-08-25T23:41:43.296Z,66.53
2022-08-25T23:44:11.911Z,67.23
2022-08-25T23:46:47.306Z,67.94
2022-08-25T23:49:18.577Z,68.17
2022-08-25T23:51:49.296Z,68.76
2022-08-25T23:54:18.785Z,68.81
2022-08-25T23:56:51.929Z,69.03
2022-08-25T23:59:24.215Z,68.23
